sensor_id;sensor_type;location;lat;lon;timestamp;P1;durP1;ratioP1;P2;durP2;ratioP2
54935;SDS011;40838;50.676;7.838;2023-04-21T00:02:18;61.08;;;30.00;;
54935;SDS011;40838;50.676;7.838;2023-04-21T00:04:45;72.13;;;30.95;;
54935;SDS011;40838;50.676;7.838;2023-04-21T00:07:15;49.28;;;24.42;;
54935;SDS011;40838;50.676;7.838;2023-04-21T00:09:44;59.10;;;27.17;;
54935;SDS011;40838;50.676;7.838;2023-04-21T00:12:11;59.78;;;27.35;;
54935;SDS011;40838;50.676;7.838;2023-04-21T00:14:37;83.18;;;33.38;;
54935;SDS011;40838;50.676;7.838;2023-04-21T00:17:05;90.40;;;35.03;;
54935;SDS011;40838;50.676;7.838;2023-04-21T00:19:32;139.27;;;38.40;;
54935;SDS011;40838;50.676;7.838;2023-04-21T00:21:59;106.32;;;35.90;;
54935;SDS011;40838;50.676;7.838;2023-04-21T00:24:27;79.20;;;33.85;;
54935;SDS011;40838;50.676;7.838;2023-04-21T00:26:54;73.15;;;30.63;;
54935;SDS011;40838;50.676;7.838;2023-04-21T00:29:21;73.78;;;32.67;;
54935;SDS011;40838;50.676;7.838;2023-04-21T00:31:48;68.07;;;30.52;;
54935;SDS011;40838;50.676;7.838;2023-04-21T00:34:15;74.22;;;32.20;;
54935;SDS011;40838;50.676;7.838;2023-04-21T00:36:44;66.03;;;28.77;;
54935;SDS011;40838;50.676;7.838;2023-04-21T00:39:11;66.15;;;30.83;;
54935;SDS011;40838;50.676;7.838;2023-04-21T00:41:39;67.13;;;30.45;;
54935;SDS011;40838;50.676;7.838;2023-04-21T00:44:07;57.97;;;28.17;;
54935;SDS011;40838;50.676;7.838;2023-04-21T00:46:35;54.15;;;27.45;;
54935;SDS011;40838;50.676;7.838;2023-04-21T00:49:03;54.47;;;27.67;;
54935;SDS011;40838;50.676;7.838;2023-04-21T00:51:32;55.65;;;26.15;;
54935;SDS011;40838;50.676;7.838;2023-04-21T00:53:59;56.97;;;27.65;;
54935;SDS011;40838;50.676;7.838;2023-04-21T00:56:29;53.85;;;26.15;;
54935;SDS011;40838;50.676;7.838;2023-04-21T00:58:58;57.40;;;26.83;;
54935;SDS011;40838;50.676;7.838;2023-04-21T01:01:27;52.88;;;25.80;;
54935;SDS011;40838;50.676;7.838;2023-04-21T01:04:18;52.80;;;26.42;;
54935;SDS011;40838;50.676;7.838;2023-04-21T01:06:46;51.30;;;24.67;;
54935;SDS011;40838;50.676;7.838;2023-04-21T01:09:13;51.45;;;26.08;;
54935;SDS011;40838;50.676;7.838;2023-04-21T01:11:40;50.40;;;25.95;;
54935;SDS011;40838;50.676;7.838;2023-04-21T01:14:08;53.85;;;25.48;;
54935;SDS011;40838;50.676;7.838;2023-04-21T01:16:36;53.60;;;25.92;;
54935;SDS011;40838;50.676;7.838;2023-04-21T01:19:04;48.10;;;23.63;;
54935;SDS011;40838;50.676;7.838;2023-04-21T01:21:37;50.45;;;24.35;;
54935;SDS011;40838;50.676;7.838;2023-04-21T01:24:04;49.78;;;25.02;;
54935;SDS011;40838;50.676;7.838;2023-04-21T01:26:32;123.50;;;28.15;;
54935;SDS011;40838;50.676;7.838;2023-04-21T01:29:00;1169.35;;;106.05;;
54935;SDS011;40838;50.676;7.838;2023-04-21T01:31:27;341.80;;;43.15;;
54935;SDS011;40838;50.676;7.838;2023-04-21T01:33:53;282.25;;;33.88;;
54935;SDS011;40838;50.676;7.838;2023-04-21T01:36:20;105.38;;;28.05;;
54935;SDS011;40838;50.676;7.838;2023-04-21T01:38:52;51.85;;;25.63;;
54935;SDS011;40838;50.676;7.838;2023-04-21T01:41:21;53.08;;;23.85;;
54935;SDS011;40838;50.676;7.838;2023-04-21T01:43:47;56.05;;;24.98;;
54935;SDS011;40838;50.676;7.838;2023-04-21T01:46:14;48.17;;;23.85;;
54935;SDS011;40838;50.676;7.838;2023-04-21T01:48:44;63.95;;;27.20;;
54935;SDS011;40838;50.676;7.838;2023-04-21T01:51:11;53.92;;;26.45;;
54935;SDS011;40838;50.676;7.838;2023-04-21T01:53:38;63.65;;;26.48;;
54935;SDS011;40838;50.676;7.838;2023-04-21T01:56:07;87.40;;;31.27;;
54935;SDS011;40838;50.676;7.838;2023-04-21T01:58:33;94.82;;;29.67;;
54935;SDS011;40838;50.676;7.838;2023-04-21T02:01:00;58.97;;;27.65;;
54935;SDS011;40838;50.676;7.838;2023-04-21T02:03:27;59.33;;;26.23;;
54935;SDS011;40838;50.676;7.838;2023-04-21T02:05:54;110.57;;;32.35;;
54935;SDS011;40838;50.676;7.838;2023-04-21T02:08:21;63.47;;;29.33;;
54935;SDS011;40838;50.676;7.838;2023-04-21T02:10:47;69.22;;;28.88;;
54935;SDS011;40838;50.676;7.838;2023-04-21T02:13:16;59.55;;;26.38;;
54935;SDS011;40838;50.676;7.838;2023-04-21T02:15:43;66.93;;;27.20;;
54935;SDS011;40838;50.676;7.838;2023-04-21T02:18:11;68.60;;;28.77;;
54935;SDS011;40838;50.676;7.838;2023-04-21T02:20:38;71.03;;;30.27;;
54935;SDS011;40838;50.676;7.838;2023-04-21T02:23:05;71.15;;;29.77;;
54935;SDS011;40838;50.676;7.838;2023-04-21T02:25:32;62.85;;;28.88;;
54935;SDS011;40838;50.676;7.838;2023-04-21T02:27:59;74.57;;;28.95;;
54935;SDS011;40838;50.676;7.838;2023-04-21T02:30:27;66.82;;;29.30;;
54935;SDS011;40838;50.676;7.838;2023-04-21T02:32:55;66.03;;;28.17;;
54935;SDS011;40838;50.676;7.838;2023-04-21T02:35:21;73.03;;;30.88;;
54935;SDS011;40838;50.676;7.838;2023-04-21T02:37:49;59.25;;;27.88;;
54935;SDS011;40838;50.676;7.838;2023-04-21T02:40:16;72.57;;;29.77;;
54935;SDS011;40838;50.676;7.838;2023-04-21T02:42:42;60.67;;;27.08;;
54935;SDS011;40838;50.676;7.838;2023-04-21T02:45:10;68.05;;;27.50;;
54935;SDS011;40838;50.676;7.838;2023-04-21T02:47:38;63.75;;;29.58;;
54935;SDS011;40838;50.676;7.838;2023-04-21T02:50:05;85.88;;;32.15;;
54935;SDS011;40838;50.676;7.838;2023-04-21T02:52:34;77.43;;;29.38;;
54935;SDS011;40838;50.676;7.838;2023-04-21T02:55:02;68.70;;;29.60;;
54935;SDS011;40838;50.676;7.838;2023-04-21T02:57:29;66.22;;;29.23;;
54935;SDS011;40838;50.676;7.838;2023-04-21T02:59:58;66.13;;;26.98;;
54935;SDS011;40838;50.676;7.838;2023-04-21T03:02:25;72.25;;;29.27;;
54935;SDS011;40838;50.676;7.838;2023-04-21T03:04:53;57.35;;;25.40;;
54935;SDS011;40838;50.676;7.838;2023-04-21T03:07:21;59.95;;;26.75;;
54935;SDS011;40838;50.676;7.838;2023-04-21T03:09:48;67.57;;;29.10;;
54935;SDS011;40838;50.676;7.838;2023-04-21T03:12:15;71.18;;;29.95;;
54935;SDS011;40838;50.676;7.838;2023-04-21T03:14:43;68.32;;;27.13;;
54935;SDS011;40838;50.676;7.838;2023-04-21T03:17:09;82.80;;;30.15;;
54935;SDS011;40838;50.676;7.838;2023-04-21T03:19:36;78.82;;;28.65;;
54935;SDS011;40838;50.676;7.838;2023-04-21T03:22:05;64.85;;;27.35;;
54935;SDS011;40838;50.676;7.838;2023-04-21T03:24:32;75.93;;;29.40;;
54935;SDS011;40838;50.676;7.838;2023-04-21T03:26:59;73.65;;;28.90;;
54935;SDS011;40838;50.676;7.838;2023-04-21T03:29:27;68.30;;;27.55;;
54935;SDS011;40838;50.676;7.838;2023-04-21T03:31:54;69.47;;;26.75;;
54935;SDS011;40838;50.676;7.838;2023-04-21T03:34:22;76.00;;;26.58;;
54935;SDS011;40838;50.676;7.838;2023-04-21T03:36:49;86.50;;;30.42;;
54935;SDS011;40838;50.676;7.838;2023-04-21T03:39:17;79.30;;;29.45;;
54935;SDS011;40838;50.676;7.838;2023-04-21T03:41:44;64.25;;;26.42;;
54935;SDS011;40838;50.676;7.838;2023-04-21T03:44:10;67.50;;;25.23;;
54935;SDS011;40838;50.676;7.838;2023-04-21T03:46:38;65.07;;;28.13;;
54935;SDS011;40838;50.676;7.838;2023-04-21T03:49:05;68.93;;;25.40;;
54935;SDS011;40838;50.676;7.838;2023-04-21T03:51:32;75.28;;;27.98;;
54935;SDS011;40838;50.676;7.838;2023-04-21T03:53:58;75.45;;;29.55;;
54935;SDS011;40838;50.676;7.838;2023-04-21T03:56:27;79.47;;;28.75;;
54935;SDS011;40838;50.676;7.838;2023-04-21T03:58:53;80.18;;;28.90;;
54935;SDS011;40838;50.676;7.838;2023-04-21T04:01:20;84.05;;;27.13;;
54935;SDS011;40838;50.676;7.838;2023-04-21T04:03:47;92.38;;;30.73;;
54935;SDS011;40838;50.676;7.838;2023-04-21T04:06:13;72.60;;;28.80;;
54935;SDS011;40838;50.676;7.838;2023-04-21T04:08:40;125.97;;;32.67;;
54935;SDS011;40838;50.676;7.838;2023-04-21T04:11:07;108.65;;;31.55;;
54935;SDS011;40838;50.676;7.838;2023-04-21T04:13:35;81.53;;;29.75;;
54935;SDS011;40838;50.676;7.838;2023-04-21T04:16:02;88.75;;;30.55;;
54935;SDS011;40838;50.676;7.838;2023-04-21T04:18:30;68.40;;;28.30;;
54935;SDS011;40838;50.676;7.838;2023-04-21T04:20:56;93.68;;;32.45;;
54935;SDS011;40838;50.676;7.838;2023-04-21T04:23:23;92.60;;;33.30;;
54935;SDS011;40838;50.676;7.838;2023-04-21T04:25:50;89.47;;;33.30;;
54935;SDS011;40838;50.676;7.838;2023-04-21T04:28:17;97.43;;;34.15;;
54935;SDS011;40838;50.676;7.838;2023-04-21T04:30:45;108.55;;;37.58;;
54935;SDS011;40838;50.676;7.838;2023-04-21T04:33:13;90.20;;;33.03;;
54935;SDS011;40838;50.676;7.838;2023-04-21T04:35:39;78.45;;;33.40;;
54935;SDS011;40838;50.676;7.838;2023-04-21T04:38:06;97.28;;;34.15;;
54935;SDS011;40838;50.676;7.838;2023-04-21T04:40:33;85.85;;;33.22;;
54935;SDS011;40838;50.676;7.838;2023-04-21T04:43:00;88.35;;;32.03;;
54935;SDS011;40838;50.676;7.838;2023-04-21T04:45:27;110.43;;;34.60;;
54935;SDS011;40838;50.676;7.838;2023-04-21T04:47:58;85.78;;;31.42;;
54935;SDS011;40838;50.676;7.838;2023-04-21T04:50:25;103.22;;;33.60;;
54935;SDS011;40838;50.676;7.838;2023-04-21T04:52:52;91.90;;;33.55;;
54935;SDS011;40838;50.676;7.838;2023-04-21T04:55:20;94.47;;;32.00;;
54935;SDS011;40838;50.676;7.838;2023-04-21T04:57:47;89.68;;;33.97;;
54935;SDS011;40838;50.676;7.838;2023-04-21T05:00:14;87.70;;;34.25;;
54935;SDS011;40838;50.676;7.838;2023-04-21T05:02:41;92.60;;;32.38;;
54935;SDS011;40838;50.676;7.838;2023-04-21T05:05:09;97.75;;;32.17;;
54935;SDS011;40838;50.676;7.838;2023-04-21T05:07:36;87.63;;;30.38;;
54935;SDS011;40838;50.676;7.838;2023-04-21T05:10:03;298.15;;;44.95;;
54935;SDS011;40838;50.676;7.838;2023-04-21T05:12:30;91.82;;;27.08;;
54935;SDS011;40838;50.676;7.838;2023-04-21T05:14:57;82.60;;;28.45;;
54935;SDS011;40838;50.676;7.838;2023-04-21T05:17:24;87.40;;;30.52;;
54935;SDS011;40838;50.676;7.838;2023-04-21T05:19:51;71.10;;;29.08;;
54935;SDS011;40838;50.676;7.838;2023-04-21T05:22:19;82.13;;;28.85;;
54935;SDS011;40838;50.676;7.838;2023-04-21T05:24:46;63.30;;;27.75;;
54935;SDS011;40838;50.676;7.838;2023-04-21T05:27:13;103.78;;;33.50;;
54935;SDS011;40838;50.676;7.838;2023-04-21T05:29:39;80.78;;;35.20;;
54935;SDS011;40838;50.676;7.838;2023-04-21T05:32:06;110.53;;;36.50;;
54935;SDS011;40838;50.676;7.838;2023-04-21T05:34:33;89.05;;;30.88;;
54935;SDS011;40838;50.676;7.838;2023-04-21T05:37:00;73.28;;;29.35;;
54935;SDS011;40838;50.676;7.838;2023-04-21T05:39:28;56.28;;;27.98;;
54935;SDS011;40838;50.676;7.838;2023-04-21T05:41:55;61.45;;;26.48;;
54935;SDS011;40838;50.676;7.838;2023-04-21T05:44:22;68.32;;;29.67;;
54935;SDS011;40838;50.676;7.838;2023-04-21T05:46:49;58.83;;;28.85;;
54935;SDS011;40838;50.676;7.838;2023-04-21T05:49:16;56.80;;;28.38;;
54935;SDS011;40838;50.676;7.838;2023-04-21T05:51:43;66.15;;;28.30;;
54935;SDS011;40838;50.676;7.838;2023-04-21T05:54:09;59.25;;;28.27;;
54935;SDS011;40838;50.676;7.838;2023-04-21T05:56:38;68.05;;;31.10;;
54935;SDS011;40838;50.676;7.838;2023-04-21T05:59:04;74.75;;;31.40;;
54935;SDS011;40838;50.676;7.838;2023-04-21T06:01:32;80.93;;;29.88;;
54935;SDS011;40838;50.676;7.838;2023-04-21T06:03:58;399.08;;;48.22;;
54935;SDS011;40838;50.676;7.838;2023-04-21T06:06:25;264.02;;;40.35;;
54935;SDS011;40838;50.676;7.838;2023-04-21T06:08:52;82.07;;;28.02;;
54935;SDS011;40838;50.676;7.838;2023-04-21T06:11:19;75.57;;;27.77;;
54935;SDS011;40838;50.676;7.838;2023-04-21T06:13:47;64.45;;;26.25;;
54935;SDS011;40838;50.676;7.838;2023-04-21T06:16:14;44.47;;;23.13;;
54935;SDS011;40838;50.676;7.838;2023-04-21T06:18:41;55.22;;;26.27;;
54935;SDS011;40838;50.676;7.838;2023-04-21T06:21:09;51.70;;;23.63;;
54935;SDS011;40838;50.676;7.838;2023-04-21T06:23:36;57.67;;;25.65;;
54935;SDS011;40838;50.676;7.838;2023-04-21T06:26:03;48.90;;;25.83;;
54935;SDS011;40838;50.676;7.838;2023-04-21T06:28:31;48.13;;;24.40;;
54935;SDS011;40838;50.676;7.838;2023-04-21T06:31:00;52.65;;;25.23;;
54935;SDS011;40838;50.676;7.838;2023-04-21T06:33:27;48.65;;;23.80;;
54935;SDS011;40838;50.676;7.838;2023-04-21T06:35:55;45.45;;;23.33;;
54935;SDS011;40838;50.676;7.838;2023-04-21T06:38:22;46.97;;;24.52;;
54935;SDS011;40838;50.676;7.838;2023-04-21T06:40:49;40.78;;;23.38;;
54935;SDS011;40838;50.676;7.838;2023-04-21T06:43:16;43.22;;;22.67;;
54935;SDS011;40838;50.676;7.838;2023-04-21T06:45:42;40.60;;;21.10;;
54935;SDS011;40838;50.676;7.838;2023-04-21T06:48:11;36.47;;;20.10;;
54935;SDS011;40838;50.676;7.838;2023-04-21T06:50:37;49.47;;;24.50;;
54935;SDS011;40838;50.676;7.838;2023-04-21T06:53:04;41.90;;;22.40;;
54935;SDS011;40838;50.676;7.838;2023-04-21T06:55:31;38.65;;;21.27;;
54935;SDS011;40838;50.676;7.838;2023-04-21T06:57:57;36.63;;;19.70;;
54935;SDS011;40838;50.676;7.838;2023-04-21T07:00:24;39.50;;;20.95;;
54935;SDS011;40838;50.676;7.838;2023-04-21T07:02:51;38.05;;;20.73;;
54935;SDS011;40838;50.676;7.838;2023-04-21T07:05:19;38.08;;;21.42;;
54935;SDS011;40838;50.676;7.838;2023-04-21T07:07:46;37.15;;;20.42;;
54935;SDS011;40838;50.676;7.838;2023-04-21T07:10:13;35.22;;;19.55;;
54935;SDS011;40838;50.676;7.838;2023-04-21T07:12:43;35.22;;;18.48;;
54935;SDS011;40838;50.676;7.838;2023-04-21T07:15:10;29.50;;;18.35;;
54935;SDS011;40838;50.676;7.838;2023-04-21T07:17:37;29.23;;;18.17;;
54935;SDS011;40838;50.676;7.838;2023-04-21T07:20:04;30.20;;;17.95;;
54935;SDS011;40838;50.676;7.838;2023-04-21T07:22:33;27.23;;;17.35;;
54935;SDS011;40838;50.676;7.838;2023-04-21T07:25:01;27.85;;;17.85;;
54935;SDS011;40838;50.676;7.838;2023-04-21T07:27:30;29.88;;;18.50;;
54935;SDS011;40838;50.676;7.838;2023-04-21T07:29:57;26.63;;;18.15;;
54935;SDS011;40838;50.676;7.838;2023-04-21T07:32:24;31.27;;;19.60;;
54935;SDS011;40838;50.676;7.838;2023-04-21T07:34:50;31.52;;;20.67;;
54935;SDS011;40838;50.676;7.838;2023-04-21T07:37:17;30.35;;;18.63;;
54935;SDS011;40838;50.676;7.838;2023-04-21T07:39:45;25.27;;;17.75;;
54935;SDS011;40838;50.676;7.838;2023-04-21T07:42:12;26.85;;;17.13;;
54935;SDS011;40838;50.676;7.838;2023-04-21T07:44:39;22.90;;;16.00;;
54935;SDS011;40838;50.676;7.838;2023-04-21T07:47:06;25.17;;;16.60;;
54935;SDS011;40838;50.676;7.838;2023-04-21T07:49:33;28.38;;;17.67;;
54935;SDS011;40838;50.676;7.838;2023-04-21T07:52:00;27.20;;;18.25;;
54935;SDS011;40838;50.676;7.838;2023-04-21T07:54:26;26.88;;;17.33;;
54935;SDS011;40838;50.676;7.838;2023-04-21T07:56:55;28.52;;;17.65;;
54935;SDS011;40838;50.676;7.838;2023-04-21T07:59:21;29.13;;;19.08;;
54935;SDS011;40838;50.676;7.838;2023-04-21T08:01:48;31.70;;;20.02;;
54935;SDS011;40838;50.676;7.838;2023-04-21T08:04:15;39.30;;;24.15;;
54935;SDS011;40838;50.676;7.838;2023-04-21T08:06:42;41.08;;;23.73;;
54935;SDS011;40838;50.676;7.838;2023-04-21T08:09:09;40.95;;;24.88;;
54935;SDS011;40838;50.676;7.838;2023-04-21T08:11:36;41.05;;;25.20;;
54935;SDS011;40838;50.676;7.838;2023-04-21T08:14:04;44.70;;;24.95;;
54935;SDS011;40838;50.676;7.838;2023-04-21T08:16:33;50.05;;;27.23;;
54935;SDS011;40838;50.676;7.838;2023-04-21T08:19:00;46.80;;;28.00;;
54935;SDS011;40838;50.676;7.838;2023-04-21T08:21:27;45.80;;;25.23;;
54935;SDS011;40838;50.676;7.838;2023-04-21T08:23:57;49.47;;;25.85;;
54935;SDS011;40838;50.676;7.838;2023-04-21T08:26:24;45.35;;;25.65;;
54935;SDS011;40838;50.676;7.838;2023-04-21T08:28:52;42.85;;;24.70;;
54935;SDS011;40838;50.676;7.838;2023-04-21T08:31:20;46.17;;;27.85;;
54935;SDS011;40838;50.676;7.838;2023-04-21T08:33:47;46.90;;;27.95;;
54935;SDS011;40838;50.676;7.838;2023-04-21T08:36:14;44.47;;;25.10;;
54935;SDS011;40838;50.676;7.838;2023-04-21T08:38:41;44.30;;;24.95;;
54935;SDS011;40838;50.676;7.838;2023-04-21T08:41:10;44.42;;;25.40;;
54935;SDS011;40838;50.676;7.838;2023-04-21T08:43:37;42.40;;;24.90;;
54935;SDS011;40838;50.676;7.838;2023-04-21T08:46:05;42.22;;;23.60;;
54935;SDS011;40838;50.676;7.838;2023-04-21T08:48:34;47.38;;;26.88;;
54935;SDS011;40838;50.676;7.838;2023-04-21T08:51:03;41.95;;;25.58;;
54935;SDS011;40838;50.676;7.838;2023-04-21T08:53:33;45.80;;;24.65;;
54935;SDS011;40838;50.676;7.838;2023-04-21T08:56:01;45.33;;;24.63;;
54935;SDS011;40838;50.676;7.838;2023-04-21T08:58:29;41.30;;;23.65;;
54935;SDS011;40838;50.676;7.838;2023-04-21T09:00:56;39.90;;;23.15;;
54935;SDS011;40838;50.676;7.838;2023-04-21T09:03:23;42.13;;;24.15;;
54935;SDS011;40838;50.676;7.838;2023-04-21T09:06:00;38.22;;;22.83;;
54935;SDS011;40838;50.676;7.838;2023-04-21T09:08:29;41.03;;;22.27;;
54935;SDS011;40838;50.676;7.838;2023-04-21T09:10:57;40.17;;;22.48;;
54935;SDS011;40838;50.676;7.838;2023-04-21T09:13:29;38.33;;;22.23;;
54935;SDS011;40838;50.676;7.838;2023-04-21T09:15:57;36.85;;;21.70;;
54935;SDS011;40838;50.676;7.838;2023-04-21T09:18:25;38.45;;;22.60;;
54935;SDS011;40838;50.676;7.838;2023-04-21T09:21:05;36.20;;;20.67;;
54935;SDS011;40838;50.676;7.838;2023-04-21T09:23:38;38.42;;;22.70;;
54935;SDS011;40838;50.676;7.838;2023-04-21T09:26:06;37.38;;;21.45;;
54935;SDS011;40838;50.676;7.838;2023-04-21T09:28:33;36.45;;;20.85;;
54935;SDS011;40838;50.676;7.838;2023-04-21T09:31:00;32.50;;;20.10;;
54935;SDS011;40838;50.676;7.838;2023-04-21T09:33:26;34.00;;;20.17;;
54935;SDS011;40838;50.676;7.838;2023-04-21T09:35:53;34.45;;;20.88;;
54935;SDS011;40838;50.676;7.838;2023-04-21T09:38:21;29.98;;;19.38;;
54935;SDS011;40838;50.676;7.838;2023-04-21T09:40:55;32.90;;;19.55;;
54935;SDS011;40838;50.676;7.838;2023-04-21T09:43:22;31.67;;;18.90;;
54935;SDS011;40838;50.676;7.838;2023-04-21T09:45:49;29.23;;;17.63;;
54935;SDS011;40838;50.676;7.838;2023-04-21T09:48:17;27.85;;;17.55;;
54935;SDS011;40838;50.676;7.838;2023-04-21T09:50:44;28.85;;;17.38;;
54935;SDS011;40838;50.676;7.838;2023-04-21T09:53:14;27.10;;;17.27;;
54935;SDS011;40838;50.676;7.838;2023-04-21T09:55:43;26.38;;;17.05;;
54935;SDS011;40838;50.676;7.838;2023-04-21T09:58:14;27.50;;;17.85;;
54935;SDS011;40838;50.676;7.838;2023-04-21T10:00:44;26.02;;;16.85;;
54935;SDS011;40838;50.676;7.838;2023-04-21T10:03:12;28.98;;;17.33;;
54935;SDS011;40838;50.676;7.838;2023-04-21T10:05:42;27.50;;;17.05;;
54935;SDS011;40838;50.676;7.838;2023-04-21T10:08:09;27.50;;;16.90;;
54935;SDS011;40838;50.676;7.838;2023-04-21T10:10:37;23.95;;;15.50;;
54935;SDS011;40838;50.676;7.838;2023-04-21T10:13:06;26.83;;;15.82;;
54935;SDS011;40838;50.676;7.838;2023-04-21T10:15:40;25.25;;;15.25;;
54935;SDS011;40838;50.676;7.838;2023-04-21T10:18:11;25.45;;;16.00;;
54935;SDS011;40838;50.676;7.838;2023-04-21T10:20:55;25.73;;;15.23;;
54935;SDS011;40838;50.676;7.838;2023-04-21T10:23:26;25.63;;;16.00;;
54935;SDS011;40838;50.676;7.838;2023-04-21T10:25:59;23.92;;;16.05;;
54935;SDS011;40838;50.676;7.838;2023-04-21T10:28:41;23.45;;;15.15;;
54935;SDS011;40838;50.676;7.838;2023-04-21T10:31:16;22.27;;;14.43;;
54935;SDS011;40838;50.676;7.838;2023-04-21T10:36:48;22.67;;;14.23;;
54935;SDS011;40838;50.676;7.838;2023-04-21T10:39:35;21.25;;;15.30;;
54935;SDS011;40838;50.676;7.838;2023-04-21T10:42:21;21.73;;;15.70;;
54935;SDS011;40838;50.676;7.838;2023-04-21T10:44:59;24.92;;;14.20;;
54935;SDS011;40838;50.676;7.838;2023-04-21T10:47:34;20.27;;;14.43;;
54935;SDS011;40838;50.676;7.838;2023-04-21T10:50:10;20.27;;;14.52;;
54935;SDS011;40838;50.676;7.838;2023-04-21T10:52:38;21.90;;;14.43;;
54935;SDS011;40838;50.676;7.838;2023-04-21T10:55:09;26.63;;;15.38;;
54935;SDS011;40838;50.676;7.838;2023-04-21T10:57:40;24.33;;;15.75;;
54935;SDS011;40838;50.676;7.838;2023-04-21T11:00:12;22.13;;;15.15;;
54935;SDS011;40838;50.676;7.838;2023-04-21T11:02:41;24.75;;;16.40;;
54935;SDS011;40838;50.676;7.838;2023-04-21T11:05:09;22.88;;;14.63;;
54935;SDS011;40838;50.676;7.838;2023-04-21T11:07:36;24.02;;;15.60;;
54935;SDS011;40838;50.676;7.838;2023-04-21T11:10:04;25.35;;;15.10;;
54935;SDS011;40838;50.676;7.838;2023-04-21T11:12:33;21.80;;;16.20;;
54935;SDS011;40838;50.676;7.838;2023-04-21T11:15:03;25.95;;;16.10;;
54935;SDS011;40838;50.676;7.838;2023-04-21T11:17:35;22.73;;;14.93;;
54935;SDS011;40838;50.676;7.838;2023-04-21T11:20:04;22.23;;;14.60;;
54935;SDS011;40838;50.676;7.838;2023-04-21T11:22:32;21.85;;;15.27;;
54935;SDS011;40838;50.676;7.838;2023-04-21T11:24:59;21.55;;;14.50;;
54935;SDS011;40838;50.676;7.838;2023-04-21T11:27:27;23.17;;;15.18;;
54935;SDS011;40838;50.676;7.838;2023-04-21T11:29:55;24.92;;;16.20;;
54935;SDS011;40838;50.676;7.838;2023-04-21T11:32:22;23.48;;;16.08;;
54935;SDS011;40838;50.676;7.838;2023-04-21T11:34:51;25.10;;;15.65;;
54935;SDS011;40838;50.676;7.838;2023-04-21T11:37:23;22.25;;;14.63;;
54935;SDS011;40838;50.676;7.838;2023-04-21T11:39:56;23.20;;;15.35;;
54935;SDS011;40838;50.676;7.838;2023-04-21T11:42:23;23.98;;;15.80;;
54935;SDS011;40838;50.676;7.838;2023-04-21T11:44:52;22.10;;;14.55;;
54935;SDS011;40838;50.676;7.838;2023-04-21T11:47:21;19.30;;;13.57;;
54935;SDS011;40838;50.676;7.838;2023-04-21T11:49:49;20.65;;;14.27;;
54935;SDS011;40838;50.676;7.838;2023-04-21T11:52:22;20.92;;;14.23;;
54935;SDS011;40838;50.676;7.838;2023-04-21T11:54:53;20.73;;;14.38;;
54935;SDS011;40838;50.676;7.838;2023-04-21T11:57:22;20.98;;;13.65;;
54935;SDS011;40838;50.676;7.838;2023-04-21T11:59:52;20.20;;;14.15;;
54935;SDS011;40838;50.676;7.838;2023-04-21T12:02:22;22.52;;;12.82;;
54935;SDS011;40838;50.676;7.838;2023-04-21T12:04:57;20.50;;;12.67;;
54935;SDS011;40838;50.676;7.838;2023-04-21T12:07:26;16.83;;;12.15;;
54935;SDS011;40838;50.676;7.838;2023-04-21T12:09:54;22.92;;;14.90;;
54935;SDS011;40838;50.676;7.838;2023-04-21T12:12:21;20.00;;;15.10;;
54935;SDS011;40838;50.676;7.838;2023-04-21T12:14:49;19.10;;;13.10;;
54935;SDS011;40838;50.676;7.838;2023-04-21T12:17:17;19.83;;;12.55;;
54935;SDS011;40838;50.676;7.838;2023-04-21T12:19:44;19.25;;;12.40;;
54935;SDS011;40838;50.676;7.838;2023-04-21T12:22:13;19.58;;;12.80;;
54935;SDS011;40838;50.676;7.838;2023-04-21T12:24:42;22.15;;;13.43;;
54935;SDS011;40838;50.676;7.838;2023-04-21T12:27:10;21.02;;;12.98;;
54935;SDS011;40838;50.676;7.838;2023-04-21T12:29:38;19.58;;;13.10;;
54935;SDS011;40838;50.676;7.838;2023-04-21T12:32:05;17.25;;;12.25;;
54935;SDS011;40838;50.676;7.838;2023-04-21T12:34:32;18.40;;;12.23;;
54935;SDS011;40838;50.676;7.838;2023-04-21T12:36:59;20.25;;;13.00;;
54935;SDS011;40838;50.676;7.838;2023-04-21T12:39:27;17.52;;;11.95;;
54935;SDS011;40838;50.676;7.838;2023-04-21T12:41:55;18.55;;;11.63;;
54935;SDS011;40838;50.676;7.838;2023-04-21T12:44:23;14.52;;;10.40;;
54935;SDS011;40838;50.676;7.838;2023-04-21T12:46:50;18.10;;;11.32;;
54935;SDS011;40838;50.676;7.838;2023-04-21T12:49:18;14.05;;;9.43;;
54935;SDS011;40838;50.676;7.838;2023-04-21T12:51:45;17.10;;;10.07;;
54935;SDS011;40838;50.676;7.838;2023-04-21T12:54:12;14.10;;;8.95;;
54935;SDS011;40838;50.676;7.838;2023-04-21T12:56:41;13.10;;;10.07;;
54935;SDS011;40838;50.676;7.838;2023-04-21T12:59:08;14.70;;;9.43;;
54935;SDS011;40838;50.676;7.838;2023-04-21T13:01:36;15.20;;;10.25;;
54935;SDS011;40838;50.676;7.838;2023-04-21T13:04:03;13.00;;;8.85;;
54935;SDS011;40838;50.676;7.838;2023-04-21T13:06:30;13.32;;;7.90;;
54935;SDS011;40838;50.676;7.838;2023-04-21T13:08:58;13.90;;;8.07;;
54935;SDS011;40838;50.676;7.838;2023-04-21T13:11:26;9.88;;;8.13;;
54935;SDS011;40838;50.676;7.838;2023-04-21T13:13:54;13.95;;;8.80;;
54935;SDS011;40838;50.676;7.838;2023-04-21T13:16:21;13.23;;;8.52;;
54935;SDS011;40838;50.676;7.838;2023-04-21T13:18:47;13.70;;;8.02;;
54935;SDS011;40838;50.676;7.838;2023-04-21T13:21:14;13.38;;;8.18;;
54935;SDS011;40838;50.676;7.838;2023-04-21T13:23:41;11.75;;;8.50;;
54935;SDS011;40838;50.676;7.838;2023-04-21T13:26:08;12.35;;;7.55;;
54935;SDS011;40838;50.676;7.838;2023-04-21T13:28:35;10.85;;;7.68;;
54935;SDS011;40838;50.676;7.838;2023-04-21T13:31:04;11.68;;;8.07;;
54935;SDS011;40838;50.676;7.838;2023-04-21T13:33:31;11.25;;;8.45;;
54935;SDS011;40838;50.676;7.838;2023-04-21T13:35:59;11.88;;;8.50;;
54935;SDS011;40838;50.676;7.838;2023-04-21T13:38:27;10.93;;;7.95;;
54935;SDS011;40838;50.676;7.838;2023-04-21T13:40:54;11.43;;;8.75;;
54935;SDS011;40838;50.676;7.838;2023-04-21T13:43:21;14.57;;;8.23;;
54935;SDS011;40838;50.676;7.838;2023-04-21T13:45:47;8.98;;;6.78;;
54935;SDS011;40838;50.676;7.838;2023-04-21T13:48:18;11.50;;;7.18;;
54935;SDS011;40838;50.676;7.838;2023-04-21T13:50:46;8.52;;;6.63;;
54935;SDS011;40838;50.676;7.838;2023-04-21T13:53:13;10.40;;;6.32;;
54935;SDS011;40838;50.676;7.838;2023-04-21T13:55:40;9.20;;;6.70;;
54935;SDS011;40838;50.676;7.838;2023-04-21T13:58:08;9.82;;;7.18;;
54935;SDS011;40838;50.676;7.838;2023-04-21T14:00:35;9.90;;;6.53;;
54935;SDS011;40838;50.676;7.838;2023-04-21T14:03:02;10.57;;;6.72;;
54935;SDS011;40838;50.676;7.838;2023-04-21T14:05:30;12.98;;;7.75;;
54935;SDS011;40838;50.676;7.838;2023-04-21T14:07:58;10.27;;;6.38;;
54935;SDS011;40838;50.676;7.838;2023-04-21T14:10:25;8.05;;;6.00;;
54935;SDS011;40838;50.676;7.838;2023-04-21T14:12:52;9.63;;;6.68;;
54935;SDS011;40838;50.676;7.838;2023-04-21T14:15:19;7.72;;;5.90;;
54935;SDS011;40838;50.676;7.838;2023-04-21T14:17:45;7.63;;;5.65;;
54935;SDS011;40838;50.676;7.838;2023-04-21T14:20:12;9.45;;;5.40;;
54935;SDS011;40838;50.676;7.838;2023-04-21T14:22:41;8.10;;;5.40;;
54935;SDS011;40838;50.676;7.838;2023-04-21T14:25:08;9.07;;;6.38;;
54935;SDS011;40838;50.676;7.838;2023-04-21T14:27:35;8.68;;;6.07;;
54935;SDS011;40838;50.676;7.838;2023-04-21T14:30:02;12.98;;;7.85;;
54935;SDS011;40838;50.676;7.838;2023-04-21T14:32:29;12.23;;;7.80;;